sensor_id;sensor_type;location;lat;lon;timestamp;P1;durP1;ratioP1;P2;durP2;ratioP2
13445;SDS011;6795;51.232;3.764;2023-05-08T00:06:43;218.02;;;94.53;;
13445;SDS011;6795;51.232;3.764;2023-05-08T00:09:47;225.43;;;96.95;;
13445;SDS011;6795;51.232;3.764;2023-05-08T00:13:51;235.18;;;98.95;;
13445;SDS011;6795;51.232;3.764;2023-05-08T00:16:34;225.00;;;100.10;;
13445;SDS011;6795;51.232;3.764;2023-05-08T00:23:31;238.18;;;101.43;;
13445;SDS011;6795;51.232;3.764;2023-05-08T00:26:51;259.15;;;103.88;;
13445;SDS011;6795;51.232;3.764;2023-05-08T00:30:26;230.48;;;101.07;;
13445;SDS011;6795;51.232;3.764;2023-05-08T00:33:31;251.40;;;109.10;;
13445;SDS011;6795;51.232;3.764;2023-05-08T00:36:59;242.73;;;109.20;;
13445;SDS011;6795;51.232;3.764;2023-05-08T00:44:10;287.55;;;107.82;;
13445;SDS011;6795;51.232;3.764;2023-05-08T00:47:09;261.67;;;105.88;;
13445;SDS011;6795;51.232;3.764;2023-05-08T00:50:24;299.95;;;116.93;;
13445;SDS011;6795;51.232;3.764;2023-05-08T00:53:41;274.02;;;114.95;;
13445;SDS011;6795;51.232;3.764;2023-05-08T00:56:56;336.27;;;117.78;;
13445;SDS011;6795;51.232;3.764;2023-05-08T01:00:06;392.05;;;116.43;;
13445;SDS011;6795;51.232;3.764;2023-05-08T01:03:07;377.27;;;87.30;;
13445;SDS011;6795;51.232;3.764;2023-05-08T01:06:09;368.25;;;81.10;;
13445;SDS011;6795;51.232;3.764;2023-05-08T01:09:33;300.05;;;80.85;;
13445;SDS011;6795;51.232;3.764;2023-05-08T01:13:03;516.72;;;88.28;;
13445;SDS011;6795;51.232;3.764;2023-05-08T01:16:33;392.63;;;81.70;;
13445;SDS011;6795;51.232;3.764;2023-05-08T01:27:08;337.05;;;77.85;;
13445;SDS011;6795;51.232;3.764;2023-05-08T01:34:30;322.13;;;74.43;;
13445;SDS011;6795;51.232;3.764;2023-05-08T01:37:44;358.70;;;76.95;;
13445;SDS011;6795;51.232;3.764;2023-05-08T01:40:50;472.95;;;78.13;;
13445;SDS011;6795;51.232;3.764;2023-05-08T01:49:33;547.30;;;78.75;;
13445;SDS011;6795;51.232;3.764;2023-05-08T01:51:20;392.83;;;72.47;;
13445;SDS011;6795;51.232;3.764;2023-05-08T01:54:41;303.75;;;65.95;;
13445;SDS011;6795;51.232;3.764;2023-05-08T01:58:02;320.02;;;65.15;;
13445;SDS011;6795;51.232;3.764;2023-05-08T02:01:16;250.77;;;56.60;;
13445;SDS011;6795;51.232;3.764;2023-05-08T02:04:34;258.40;;;50.30;;
13445;SDS011;6795;51.232;3.764;2023-05-08T02:07:46;206.60;;;45.60;;
13445;SDS011;6795;51.232;3.764;2023-05-08T02:11:01;167.73;;;41.97;;
13445;SDS011;6795;51.232;3.764;2023-05-08T02:14:40;136.35;;;40.17;;
13445;SDS011;6795;51.232;3.764;2023-05-08T02:18:00;190.57;;;40.58;;
13445;SDS011;6795;51.232;3.764;2023-05-08T02:25:15;199.60;;;42.15;;
13445;SDS011;6795;51.232;3.764;2023-05-08T02:28:36;182.38;;;40.95;;
13445;SDS011;6795;51.232;3.764;2023-05-08T02:31:57;191.43;;;41.47;;
13445;SDS011;6795;51.232;3.764;2023-05-08T02:35:13;237.77;;;45.42;;
13445;SDS011;6795;51.232;3.764;2023-05-08T02:38:18;166.13;;;42.13;;
13445;SDS011;6795;51.232;3.764;2023-05-08T02:45:20;296.63;;;43.90;;
13445;SDS011;6795;51.232;3.764;2023-05-08T02:48:35;155.75;;;41.72;;
13445;SDS011;6795;51.232;3.764;2023-05-08T02:52:03;350.40;;;45.28;;
13445;SDS011;6795;51.232;3.764;2023-05-08T02:55:26;456.58;;;50.90;;
13445;SDS011;6795;51.232;3.764;2023-05-08T02:58:56;197.57;;;40.25;;
13445;SDS011;6795;51.232;3.764;2023-05-08T03:06:20;241.57;;;40.65;;
13445;SDS011;6795;51.232;3.764;2023-05-08T03:09:43;259.75;;;39.83;;
13445;SDS011;6795;51.232;3.764;2023-05-08T03:13:05;180.25;;;39.05;;
13445;SDS011;6795;51.232;3.764;2023-05-08T03:16:25;193.68;;;38.13;;
13445;SDS011;6795;51.232;3.764;2023-05-08T03:26:47;375.35;;;46.67;;
13445;SDS011;6795;51.232;3.764;2023-05-08T03:29:57;324.08;;;43.63;;
13445;SDS011;6795;51.232;3.764;2023-05-08T03:33:03;252.10;;;42.15;;
13445;SDS011;6795;51.232;3.764;2023-05-08T03:36:22;215.00;;;41.30;;
13445;SDS011;6795;51.232;3.764;2023-05-08T03:39:46;239.63;;;39.15;;
13445;SDS011;6795;51.232;3.764;2023-05-08T03:43:25;364.75;;;45.88;;
13445;SDS011;6795;51.232;3.764;2023-05-08T03:46:32;211.20;;;39.55;;
13445;SDS011;6795;51.232;3.764;2023-05-08T03:50:02;191.95;;;42.05;;
13445;SDS011;6795;51.232;3.764;2023-05-08T03:53:39;152.02;;;36.15;;
13445;SDS011;6795;51.232;3.764;2023-05-08T03:57:13;150.18;;;34.78;;
13445;SDS011;6795;51.232;3.764;2023-05-08T04:00:28;170.88;;;35.38;;
13445;SDS011;6795;51.232;3.764;2023-05-08T04:03:52;222.27;;;35.90;;
13445;SDS011;6795;51.232;3.764;2023-05-08T04:07:06;130.18;;;34.50;;
13445;SDS011;6795;51.232;3.764;2023-05-08T04:11:08;165.88;;;34.33;;
13445;SDS011;6795;51.232;3.764;2023-05-08T04:13:56;138.75;;;30.77;;
13445;SDS011;6795;51.232;3.764;2023-05-08T04:20:57;123.93;;;28.40;;
13445;SDS011;6795;51.232;3.764;2023-05-08T04:24:06;155.50;;;28.23;;
13445;SDS011;6795;51.232;3.764;2023-05-08T04:27:12;119.70;;;26.63;;
13445;SDS011;6795;51.232;3.764;2023-05-08T04:30:55;114.50;;;25.35;;
13445;SDS011;6795;51.232;3.764;2023-05-08T04:34:23;138.75;;;25.48;;
13445;SDS011;6795;51.232;3.764;2023-05-08T04:38:05;151.55;;;26.88;;
13445;SDS011;6795;51.232;3.764;2023-05-08T04:41:11;131.27;;;26.25;;
13445;SDS011;6795;51.232;3.764;2023-05-08T04:44:11;166.38;;;27.85;;
13445;SDS011;6795;51.232;3.764;2023-05-08T04:47:36;227.38;;;27.10;;
13445;SDS011;6795;51.232;3.764;2023-05-08T04:51:01;130.18;;;24.45;;
13445;SDS011;6795;51.232;3.764;2023-05-08T04:54:13;120.82;;;25.13;;
13445;SDS011;6795;51.232;3.764;2023-05-08T04:57:29;98.97;;;22.95;;
13445;SDS011;6795;51.232;3.764;2023-05-08T05:00:52;111.60;;;23.17;;
13445;SDS011;6795;51.232;3.764;2023-05-08T05:04:10;89.55;;;21.13;;
13445;SDS011;6795;51.232;3.764;2023-05-08T05:07:21;127.45;;;22.85;;
13445;SDS011;6795;51.232;3.764;2023-05-08T05:10:45;131.50;;;22.35;;
13445;SDS011;6795;51.232;3.764;2023-05-08T05:14:08;100.00;;;22.10;;
13445;SDS011;6795;51.232;3.764;2023-05-08T05:17:16;122.32;;;22.00;;
13445;SDS011;6795;51.232;3.764;2023-05-08T05:35:11;66.82;;;18.73;;
13445;SDS011;6795;51.232;3.764;2023-05-08T05:38:22;69.95;;;21.45;;
13445;SDS011;6795;51.232;3.764;2023-05-08T05:41:26;68.82;;;17.17;;
13445;SDS011;6795;51.232;3.764;2023-05-08T05:44:44;67.43;;;17.95;;
13445;SDS011;6795;51.232;3.764;2023-05-08T05:48:10;82.90;;;19.02;;
13445;SDS011;6795;51.232;3.764;2023-05-08T05:51:20;107.90;;;20.48;;
13445;SDS011;6795;51.232;3.764;2023-05-08T05:54:52;68.43;;;18.08;;
13445;SDS011;6795;51.232;3.764;2023-05-08T05:57:48;58.42;;;18.85;;
13445;SDS011;6795;51.232;3.764;2023-05-08T06:01:00;72.47;;;20.17;;
13445;SDS011;6795;51.232;3.764;2023-05-08T06:04:28;69.85;;;19.33;;
13445;SDS011;6795;51.232;3.764;2023-05-08T06:11:06;67.05;;;18.02;;
13445;SDS011;6795;51.232;3.764;2023-05-08T06:14:29;63.92;;;18.55;;
13445;SDS011;6795;51.232;3.764;2023-05-08T06:18:05;56.55;;;18.92;;
13445;SDS011;6795;51.232;3.764;2023-05-08T06:24:40;54.25;;;18.98;;
13445;SDS011;6795;51.232;3.764;2023-05-08T06:27:50;64.20;;;20.90;;
13445;SDS011;6795;51.232;3.764;2023-05-08T06:31:05;70.88;;;22.00;;
13445;SDS011;6795;51.232;3.764;2023-05-08T06:34:11;65.30;;;19.50;;
13445;SDS011;6795;51.232;3.764;2023-05-08T06:37:25;93.82;;;28.08;;
13445;SDS011;6795;51.232;3.764;2023-05-08T06:40:53;83.03;;;22.95;;
13445;SDS011;6795;51.232;3.764;2023-05-08T06:43:44;68.35;;;23.50;;
13445;SDS011;6795;51.232;3.764;2023-05-08T06:50:05;73.13;;;25.45;;
13445;SDS011;6795;51.232;3.764;2023-05-08T06:53:24;65.25;;;25.95;;
13445;SDS011;6795;51.232;3.764;2023-05-08T07:00:00;52.95;;;20.85;;
13445;SDS011;6795;51.232;3.764;2023-05-08T07:03:32;47.60;;;21.08;;
13445;SDS011;6795;51.232;3.764;2023-05-08T07:06:41;41.72;;;18.90;;
13445;SDS011;6795;51.232;3.764;2023-05-08T07:10:08;33.67;;;18.35;;
13445;SDS011;6795;51.232;3.764;2023-05-08T07:21:06;40.40;;;19.20;;
13445;SDS011;6795;51.232;3.764;2023-05-08T07:24:41;37.72;;;17.58;;
13445;SDS011;6795;51.232;3.764;2023-05-08T07:28:04;45.75;;;20.08;;
13445;SDS011;6795;51.232;3.764;2023-05-08T07:31:06;39.17;;;19.23;;
13445;SDS011;6795;51.232;3.764;2023-05-08T07:41:50;46.38;;;20.58;;
13445;SDS011;6795;51.232;3.764;2023-05-08T07:45:14;46.95;;;19.73;;
13445;SDS011;6795;51.232;3.764;2023-05-08T07:48:29;47.25;;;21.83;;
13445;SDS011;6795;51.232;3.764;2023-05-08T07:51:50;53.15;;;23.73;;
13445;SDS011;6795;51.232;3.764;2023-05-08T07:58:42;46.30;;;23.08;;
13445;SDS011;6795;51.232;3.764;2023-05-08T08:09:37;60.13;;;23.77;;
13445;SDS011;6795;51.232;3.764;2023-05-08T08:12:48;52.53;;;23.70;;
13445;SDS011;6795;51.232;3.764;2023-05-08T08:16:08;54.33;;;24.30;;
13445;SDS011;6795;51.232;3.764;2023-05-08T08:19:27;58.28;;;25.75;;
13445;SDS011;6795;51.232;3.764;2023-05-08T08:22:49;55.70;;;25.50;;
13445;SDS011;6795;51.232;3.764;2023-05-08T08:25:49;61.03;;;26.38;;
13445;SDS011;6795;51.232;3.764;2023-05-08T08:29:13;50.00;;;22.52;;
13445;SDS011;6795;51.232;3.764;2023-05-08T08:32:28;61.92;;;25.77;;
13445;SDS011;6795;51.232;3.764;2023-05-08T08:35:50;63.08;;;26.77;;
13445;SDS011;6795;51.232;3.764;2023-05-08T08:46:52;64.07;;;26.08;;
13445;SDS011;6795;51.232;3.764;2023-05-08T08:50:05;62.63;;;26.35;;
13445;SDS011;6795;51.232;3.764;2023-05-08T08:53:25;55.72;;;25.27;;
13445;SDS011;6795;51.232;3.764;2023-05-08T08:56:43;50.55;;;25.08;;
13445;SDS011;6795;51.232;3.764;2023-05-08T09:00:07;51.33;;;23.98;;
13445;SDS011;6795;51.232;3.764;2023-05-08T09:03:15;43.50;;;22.77;;
13445;SDS011;6795;51.232;3.764;2023-05-08T09:06:36;40.65;;;21.52;;
13445;SDS011;6795;51.232;3.764;2023-05-08T09:09:57;44.08;;;22.50;;
13445;SDS011;6795;51.232;3.764;2023-05-08T09:13:02;41.65;;;22.60;;
13445;SDS011;6795;51.232;3.764;2023-05-08T09:16:13;34.30;;;19.33;;
13445;SDS011;6795;51.232;3.764;2023-05-08T09:19:20;28.88;;;19.08;;
13445;SDS011;6795;51.232;3.764;2023-05-08T09:22:49;25.95;;;16.67;;
13445;SDS011;6795;51.232;3.764;2023-05-08T09:26:32;25.38;;;17.25;;
13445;SDS011;6795;51.232;3.764;2023-05-08T09:29:59;23.30;;;14.70;;
13445;SDS011;6795;51.232;3.764;2023-05-08T09:40:27;17.20;;;13.50;;
13445;SDS011;6795;51.232;3.764;2023-05-08T09:43:58;18.38;;;13.45;;
13445;SDS011;6795;51.232;3.764;2023-05-08T09:47:20;16.27;;;12.98;;
13445;SDS011;6795;51.232;3.764;2023-05-08T09:50:30;13.30;;;9.70;;
13445;SDS011;6795;51.232;3.764;2023-05-08T09:53:38;14.77;;;10.82;;
13445;SDS011;6795;51.232;3.764;2023-05-08T09:56:39;14.57;;;11.30;;
13445;SDS011;6795;51.232;3.764;2023-05-08T09:59:50;15.52;;;11.98;;
13445;SDS011;6795;51.232;3.764;2023-05-08T10:03:09;16.23;;;12.48;;
13445;SDS011;6795;51.232;3.764;2023-05-08T10:10:35;14.27;;;11.48;;
13445;SDS011;6795;51.232;3.764;2023-05-08T10:13:44;15.63;;;11.63;;
13445;SDS011;6795;51.232;3.764;2023-05-08T10:16:59;18.45;;;10.77;;
13445;SDS011;6795;51.232;3.764;2023-05-08T10:20:24;15.95;;;11.30;;
13445;SDS011;6795;51.232;3.764;2023-05-08T10:23:33;18.05;;;11.68;;
13445;SDS011;6795;51.232;3.764;2023-05-08T10:30:22;13.18;;;10.30;;
13445;SDS011;6795;51.232;3.764;2023-05-08T10:33:43;13.80;;;9.98;;
13445;SDS011;6795;51.232;3.764;2023-05-08T10:37:28;14.55;;;10.65;;
13445;SDS011;6795;51.232;3.764;2023-05-08T10:40:41;12.20;;;9.50;;
13445;SDS011;6795;51.232;3.764;2023-05-08T10:46:56;15.43;;;9.57;;
13445;SDS011;6795;51.232;3.764;2023-05-08T10:50:41;11.32;;;9.68;;
13445;SDS011;6795;51.232;3.764;2023-05-08T10:53:56;11.32;;;9.40;;
13445;SDS011;6795;51.232;3.764;2023-05-08T10:57:07;10.43;;;9.32;;
13445;SDS011;6795;51.232;3.764;2023-05-08T11:00:21;9.23;;;8.32;;
13445;SDS011;6795;51.232;3.764;2023-05-08T11:07:56;7.97;;;7.18;;
13445;SDS011;6795;51.232;3.764;2023-05-08T11:11:19;8.70;;;7.90;;
13445;SDS011;6795;51.232;3.764;2023-05-08T11:15:02;9.60;;;8.60;;
13445;SDS011;6795;51.232;3.764;2023-05-08T11:18:14;10.88;;;8.88;;
13445;SDS011;6795;51.232;3.764;2023-05-08T11:25:07;9.25;;;8.00;;
13445;SDS011;6795;51.232;3.764;2023-05-08T11:28:27;9.15;;;8.27;;
13445;SDS011;6795;51.232;3.764;2023-05-08T11:32:03;9.48;;;8.57;;
13445;SDS011;6795;51.232;3.764;2023-05-08T11:35:13;9.50;;;8.52;;
13445;SDS011;6795;51.232;3.764;2023-05-08T11:39:04;10.35;;;9.02;;
13445;SDS011;6795;51.232;3.764;2023-05-08T11:45:51;8.93;;;8.02;;
13445;SDS011;6795;51.232;3.764;2023-05-08T11:49:18;10.40;;;9.30;;
13445;SDS011;6795;51.232;3.764;2023-05-08T11:52:50;12.05;;;10.43;;
13445;SDS011;6795;51.232;3.764;2023-05-08T11:56:12;12.15;;;10.70;;
13445;SDS011;6795;51.232;3.764;2023-05-08T11:59:23;12.18;;;10.73;;
13445;SDS011;6795;51.232;3.764;2023-05-08T12:02:39;11.90;;;10.52;;
13445;SDS011;6795;51.232;3.764;2023-05-08T12:05:56;11.93;;;10.68;;
13445;SDS011;6795;51.232;3.764;2023-05-08T12:09:16;12.95;;;11.65;;
13445;SDS011;6795;51.232;3.764;2023-05-08T12:12:48;15.13;;;11.10;;
13445;SDS011;6795;51.232;3.764;2023-05-08T12:15:57;13.30;;;11.90;;
13445;SDS011;6795;51.232;3.764;2023-05-08T12:19:24;16.63;;;12.07;;
13445;SDS011;6795;51.232;3.764;2023-05-08T12:22:39;14.93;;;12.57;;
13445;SDS011;6795;51.232;3.764;2023-05-08T12:26:02;13.35;;;11.43;;
13445;SDS011;6795;51.232;3.764;2023-05-08T12:32:55;15.55;;;11.38;;
13445;SDS011;6795;51.232;3.764;2023-05-08T12:35:51;14.73;;;12.68;;
13445;SDS011;6795;51.232;3.764;2023-05-08T12:39:17;15.13;;;11.52;;
13445;SDS011;6795;51.232;3.764;2023-05-08T12:42:46;14.88;;;10.93;;
13445;SDS011;6795;51.232;3.764;2023-05-08T12:49:33;12.60;;;11.30;;
13445;SDS011;6795;51.232;3.764;2023-05-08T12:53:28;14.23;;;10.90;;
13445;SDS011;6795;51.232;3.764;2023-05-08T12:56:45;13.75;;;11.10;;
13445;SDS011;6795;51.232;3.764;2023-05-08T12:59:49;14.73;;;11.68;;
13445;SDS011;6795;51.232;3.764;2023-05-08T13:10:54;14.85;;;12.13;;
13445;SDS011;6795;51.232;3.764;2023-05-08T13:14:11;14.52;;;12.30;;
13445;SDS011;6795;51.232;3.764;2023-05-08T13:17:32;16.42;;;12.18;;
13445;SDS011;6795;51.232;3.764;2023-05-08T13:20:42;16.35;;;12.85;;
13445;SDS011;6795;51.232;3.764;2023-05-08T13:28:00;16.92;;;13.20;;
13445;SDS011;6795;51.232;3.764;2023-05-08T13:31:29;14.70;;;12.23;;
13445;SDS011;6795;51.232;3.764;2023-05-08T13:38:22;19.25;;;14.32;;
13445;SDS011;6795;51.232;3.764;2023-05-08T13:41:43;21.00;;;16.88;;
13445;SDS011;6795;51.232;3.764;2023-05-08T13:44:54;23.30;;;16.15;;
13445;SDS011;6795;51.232;3.764;2023-05-08T13:50:14;19.92;;;15.65;;
13445;SDS011;6795;51.232;3.764;2023-05-08T13:51:35;17.85;;;14.23;;
13445;SDS011;6795;51.232;3.764;2023-05-08T13:54:43;21.27;;;15.68;;
13445;SDS011;6795;51.232;3.764;2023-05-08T14:01:48;16.40;;;13.52;;
13445;SDS011;6795;51.232;3.764;2023-05-08T14:04:53;15.93;;;14.32;;
13445;SDS011;6795;51.232;3.764;2023-05-08T14:08:07;19.20;;;15.27;;
13445;SDS011;6795;51.232;3.764;2023-05-08T14:11:33;19.52;;;15.07;;
13445;SDS011;6795;51.232;3.764;2023-05-08T14:19:09;18.23;;;15.05;;
13445;SDS011;6795;51.232;3.764;2023-05-08T14:22:28;22.20;;;14.90;;
13445;SDS011;6795;51.232;3.764;2023-05-08T14:25:37;16.25;;;14.45;;
13445;SDS011;6795;51.232;3.764;2023-05-08T14:28:56;13.85;;;12.45;;
13445;SDS011;6795;51.232;3.764;2023-05-08T14:32:13;16.63;;;14.18;;
13445;SDS011;6795;51.232;3.764;2023-05-08T14:43:13;16.00;;;13.95;;
13445;SDS011;6795;51.232;3.764;2023-05-08T14:48:36;20.48;;;14.85;;
13445;SDS011;6795;51.232;3.764;2023-05-08T14:50:09;16.83;;;14.60;;
13445;SDS011;6795;51.232;3.764;2023-05-08T14:53:20;16.92;;;13.30;;
13445;SDS011;6795;51.232;3.764;2023-05-08T14:56:36;17.02;;;14.02;;
13445;SDS011;6795;51.232;3.764;2023-05-08T15:03:16;14.55;;;13.13;;
13445;SDS011;6795;51.232;3.764;2023-05-08T15:06:49;14.50;;;13.00;;
13445;SDS011;6795;51.232;3.764;2023-05-08T15:10:14;15.10;;;13.30;;
13445;SDS011;6795;51.232;3.764;2023-05-08T15:13:24;15.63;;;12.95;;
13445;SDS011;6795;51.232;3.764;2023-05-08T15:20:25;15.27;;;12.15;;
13445;SDS011;6795;51.232;3.764;2023-05-08T15:25:12;13.80;;;12.40;;
13445;SDS011;6795;51.232;3.764;2023-05-08T15:27:30;13.70;;;11.40;;
13445;SDS011;6795;51.232;3.764;2023-05-08T15:30:39;12.15;;;11.05;;
13445;SDS011;6795;51.232;3.764;2023-05-08T15:45:12;14.40;;;13.00;;
13445;SDS011;6795;51.232;3.764;2023-05-08T15:48:43;14.45;;;12.27;;
13445;SDS011;6795;51.232;3.764;2023-05-08T15:51:53;14.50;;;11.80;;
13445;SDS011;6795;51.232;3.764;2023-05-08T15:55:14;14.32;;;11.68;;
13445;SDS011;6795;51.232;3.764;2023-05-08T15:58:28;15.35;;;10.75;;
13445;SDS011;6795;51.232;3.764;2023-05-08T16:05:25;14.70;;;11.82;;
13445;SDS011;6795;51.232;3.764;2023-05-08T16:08:58;13.45;;;11.50;;
13445;SDS011;6795;51.232;3.764;2023-05-08T16:12:23;14.85;;;11.40;;
13445;SDS011;6795;51.232;3.764;2023-05-08T16:15:33;16.25;;;10.57;;
13445;SDS011;6795;51.232;3.764;2023-05-08T16:26:06;17.60;;;12.27;;
13445;SDS011;6795;51.232;3.764;2023-05-08T16:29:53;14.20;;;11.32;;
13445;SDS011;6795;51.232;3.764;2023-05-08T16:33:16;11.40;;;10.18;;
13445;SDS011;6795;51.232;3.764;2023-05-08T16:40:03;12.60;;;10.23;;
13445;SDS011;6795;51.232;3.764;2023-05-08T16:43:32;17.45;;;11.00;;
13445;SDS011;6795;51.232;3.764;2023-05-08T16:46:53;14.43;;;10.65;;
13445;SDS011;6795;51.232;3.764;2023-05-08T16:49:56;10.90;;;9.43;;
13445;SDS011;6795;51.232;3.764;2023-05-08T16:57:29;13.13;;;9.50;;
13445;SDS011;6795;51.232;3.764;2023-05-08T17:00:52;12.25;;;10.85;;
13445;SDS011;6795;51.232;3.764;2023-05-08T17:04:08;12.57;;;9.27;;
13445;SDS011;6795;51.232;3.764;2023-05-08T17:07:13;13.48;;;9.80;;
13445;SDS011;6795;51.232;3.764;2023-05-08T17:10:36;13.23;;;10.07;;
13445;SDS011;6795;51.232;3.764;2023-05-08T17:13:35;13.40;;;9.68;;
13445;SDS011;6795;51.232;3.764;2023-05-08T17:17:20;12.88;;;9.70;;
13445;SDS011;6795;51.232;3.764;2023-05-08T17:20:27;10.00;;;8.75;;
13445;SDS011;6795;51.232;3.764;2023-05-08T17:23:51;14.73;;;9.60;;
13445;SDS011;6795;51.232;3.764;2023-05-08T17:27:14;12.77;;;9.05;;
13445;SDS011;6795;51.232;3.764;2023-05-08T17:30:34;18.08;;;9.68;;
13445;SDS011;6795;51.232;3.764;2023-05-08T17:34:21;14.90;;;10.18;;
13445;SDS011;6795;51.232;3.764;2023-05-08T17:38:23;14.63;;;9.50;;
13445;SDS011;6795;51.232;3.764;2023-05-08T17:41:26;18.50;;;10.55;;
13445;SDS011;6795;51.232;3.764;2023-05-08T17:56:25;14.88;;;10.95;;
13445;SDS011;6795;51.232;3.764;2023-05-08T17:59:16;13.20;;;9.73;;
13445;SDS011;6795;51.232;3.764;2023-05-08T18:02:36;13.23;;;9.38;;
13445;SDS011;6795;51.232;3.764;2023-05-08T18:05:54;11.43;;;9.15;;
13445;SDS011;6795;51.232;3.764;2023-05-08T18:09:06;13.77;;;9.57;;
13445;SDS011;6795;51.232;3.764;2023-05-08T18:12:27;11.35;;;8.95;;
13445;SDS011;6795;51.232;3.764;2023-05-08T18:15:38;13.20;;;9.10;;
13445;SDS011;6795;51.232;3.764;2023-05-08T18:18:53;11.95;;;9.45;;
13445;SDS011;6795;51.232;3.764;2023-05-08T18:22:07;12.75;;;8.73;;
13445;SDS011;6795;51.232;3.764;2023-05-08T18:25:22;11.90;;;8.18;;
13445;SDS011;6795;51.232;3.764;2023-05-08T18:28:46;13.32;;;7.50;;
13445;SDS011;6795;51.232;3.764;2023-05-08T18:31:43;9.65;;;7.93;;
13445;SDS011;6795;51.232;3.764;2023-05-08T18:35:42;11.25;;;7.90;;
13445;SDS011;6795;51.232;3.764;2023-05-08T18:38:51;11.68;;;8.15;;
13445;SDS011;6795;51.232;3.764;2023-05-08T18:42:08;11.88;;;8.10;;
13445;SDS011;6795;51.232;3.764;2023-05-08T18:50:05;11.93;;;8.02;;
13445;SDS011;6795;51.232;3.764;2023-05-08T18:53:13;13.25;;;8.38;;
13445;SDS011;6795;51.232;3.764;2023-05-08T18:56:14;12.63;;;8.73;;
13445;SDS011;6795;51.232;3.764;2023-05-08T18:59:15;10.32;;;8.10;;
13445;SDS011;6795;51.232;3.764;2023-05-08T19:02:34;15.60;;;8.65;;
13445;SDS011;6795;51.232;3.764;2023-05-08T19:09:42;14.45;;;9.27;;
13445;SDS011;6795;51.232;3.764;2023-05-08T19:13:24;12.98;;;8.35;;
13445;SDS011;6795;51.232;3.764;2023-05-08T19:16:24;12.88;;;8.30;;
13445;SDS011;6795;51.232;3.764;2023-05-08T19:20:19;15.10;;;8.77;;
13445;SDS011;6795;51.232;3.764;2023-05-08T19:23:23;14.27;;;9.70;;
13445;SDS011;6795;51.232;3.764;2023-05-08T19:27:02;13.00;;;9.98;;
13445;SDS011;6795;51.232;3.764;2023-05-08T19:29:58;12.68;;;9.75;;
13445;SDS011;6795;51.232;3.764;2023-05-08T19:33:07;20.20;;;11.38;;
13445;SDS011;6795;51.232;3.764;2023-05-08T19:36:39;18.02;;;10.07;;
13445;SDS011;6795;51.232;3.764;2023-05-08T19:39:24;14.43;;;10.25;;
13445;SDS011;6795;51.232;3.764;2023-05-08T19:42:45;14.68;;;9.25;;
13445;SDS011;6795;51.232;3.764;2023-05-08T19:46:28;16.80;;;11.70;;
13445;SDS011;6795;51.232;3.764;2023-05-08T19:49:18;15.18;;;11.02;;
13445;SDS011;6795;51.232;3.764;2023-05-08T19:52:35;15.27;;;12.50;;
13445;SDS011;6795;51.232;3.764;2023-05-08T19:55:34;18.50;;;11.32;;
13445;SDS011;6795;51.232;3.764;2023-05-08T20:02:23;13.18;;;11.25;;
13445;SDS011;6795;51.232;3.764;2023-05-08T20:05:32;17.02;;;11.38;;
13445;SDS011;6795;51.232;3.764;2023-05-08T20:08:47;15.70;;;12.45;;
13445;SDS011;6795;51.232;3.764;2023-05-08T20:11:45;14.45;;;11.43;;
13445;SDS011;6795;51.232;3.764;2023-05-08T20:15:52;18.23;;;12.02;;
13445;SDS011;6795;51.232;3.764;2023-05-08T20:22:14;17.35;;;11.93;;
13445;SDS011;6795;51.232;3.764;2023-05-08T20:25:18;16.60;;;13.20;;
13445;SDS011;6795;51.232;3.764;2023-05-08T20:28:51;19.75;;;12.05;;
13445;SDS011;6795;51.232;3.764;2023-05-08T20:32:26;17.42;;;12.38;;
13445;SDS011;6795;51.232;3.764;2023-05-08T20:35:36;16.88;;;12.63;;
13445;SDS011;6795;51.232;3.764;2023-05-08T20:46:12;18.13;;;10.57;;
13445;SDS011;6795;51.232;3.764;2023-05-08T20:49:19;18.75;;;10.80;;
13445;SDS011;6795;51.232;3.764;2023-05-08T20:52:27;19.60;;;11.23;;
13445;SDS011;6795;51.232;3.764;2023-05-08T20:55:29;15.23;;;10.43;;
13445;SDS011;6795;51.232;3.764;2023-05-08T20:58:48;18.20;;;12.15;;
13445;SDS011;6795;51.232;3.764;2023-05-08T21:03:04;20.02;;;11.40;;
13445;SDS011;6795;51.232;3.764;2023-05-08T21:05:59;16.52;;;11.68;;
13445;SDS011;6795;51.232;3.764;2023-05-08T21:09:48;15.90;;;12.00;;
13445;SDS011;6795;51.232;3.764;2023-05-08T21:12:55;18.10;;;13.35;;
13445;SDS011;6795;51.232;3.764;2023-05-08T21:16:19;19.65;;;12.15;;
13445;SDS011;6795;51.232;3.764;2023-05-08T21:19:47;18.05;;;12.90;;
13445;SDS011;6795;51.232;3.764;2023-05-08T21:23:08;15.98;;;12.27;;
13445;SDS011;6795;51.232;3.764;2023-05-08T21:26:17;17.52;;;12.85;;
13445;SDS011;6795;51.232;3.764;2023-05-08T21:29:39;15.25;;;11.82;;
13445;SDS011;6795;51.232;3.764;2023-05-08T21:40:30;17.20;;;12.93;;
13445;SDS011;6795;51.232;3.764;2023-05-08T21:43:51;17.70;;;12.55;;
13445;SDS011;6795;51.232;3.764;2023-05-08T21:46:58;17.40;;;12.52;;
13445;SDS011;6795;51.232;3.764;2023-05-08T21:50:15;18.60;;;12.68;;
13445;SDS011;6795;51.232;3.764;2023-05-08T22:04:39;19.02;;;13.40;;
13445;SDS011;6795;51.232;3.764;2023-05-08T22:07:50;19.20;;;12.93;;
13445;SDS011;6795;51.232;3.764;2023-05-08T22:11:30;21.10;;;13.07;;
13445;SDS011;6795;51.232;3.764;2023-05-08T22:14:54;15.57;;;13.70;;
13445;SDS011;6795;51.232;3.764;2023-05-08T22:18:24;20.08;;;14.35;;
13445;SDS011;6795;51.232;3.764;2023-05-08T22:21:45;21.13;;;13.25;;
13445;SDS011;6795;51.232;3.764;2023-05-08T22:25:37;15.45;;;12.25;;
13445;SDS011;6795;51.232;3.764;2023-05-08T22:28:51;18.42;;;13.00;;
13445;SDS011;6795;51.232;3.764;2023-05-08T22:32:17;19.83;;;12.05;;
13445;SDS011;6795;51.232;3.764;2023-05-08T22:35:29;14.52;;;10.68;;
13445;SDS011;6795;51.232;3.764;2023-05-08T22:38:57;16.92;;;12.10;;
13445;SDS011;6795;51.232;3.764;2023-05-08T22:41:57;17.77;;;11.27;;
13445;SDS011;6795;51.232;3.764;2023-05-08T22:49:03;18.40;;;11.13;;
13445;SDS011;6795;51.232;3.764;2023-05-08T22:55:38;19.08;;;11.82;;
13445;SDS011;6795;51.232;3.764;2023-05-08T23:05:35;14.55;;;10.32;;
13445;SDS011;6795;51.232;3.764;2023-05-08T23:09:05;15.85;;;10.75;;
13445;SDS011;6795;51.232;3.764;2023-05-08T23:12:12;15.32;;;9.98;;
13445;SDS011;6795;51.232;3.764;2023-05-08T23:15:28;23.95;;;12.30;;
13445;SDS011;6795;51.232;3.764;2023-05-08T23:18:26;19.10;;;12.55;;
13445;SDS011;6795;51.232;3.764;2023-05-08T23:21:50;26.13;;;13.50;;
13445;SDS011;6795;51.232;3.764;2023-05-08T23:29:03;20.23;;;11.15;;
13445;SDS011;6795;51.232;3.764;2023-05-08T23:32:28;15.98;;;11.43;;
13445;SDS011;6795;51.232;3.764;2023-05-08T23:35:34;18.30;;;10.75;;
13445;SDS011;6795;51.232;3.764;2023-05-08T23:38:48;15.55;;;11.25;;
13445;SDS011;6795;51.232;3.764;2023-05-08T23:49:13;19.73;;;12.77;;
13445;SDS011;6795;51.232;3.764;2023-05-08T23:52:34;18.63;;;13.52;;
13445;SDS011;6795;51.232;3.764;2023-05-08T23:55:56;22.48;;;12.98;;
13445;SDS011;6795;51.232;3.764;2023-05-08T23:59:17;18.75;;;12.95;;
